Time;durP1;ratioP1;P1;durP2;ratioP2;P2;SDS_P1;SDS_P2;PMS_P1;PMS_P2;Temp;Humidity;BMP_temperature;BMP_pressure;BME280_temperature;BME280_humidity;BME280_pressure;Samples;Min_cycle;Max_cycle;Signal;HPM_P1;HPM_P2
2023/03/25 00:01:03;;;;;;;10.63;2.50;;;9.60;99.90;;;;;;5062023;28;20040;-62
2023/03/25 00:03:34;;;;;;;9.55;1.95;;;9.60;99.90;;;;;;5062599;28;20079;-62
2023/03/25 00:06:00;;;;;;;7.50;1.73;;;9.60;99.90;;;;;;5068382;28;20076;-62
2023/03/25 00:08:26;;;;;;;7.07;1.10;;;9.60;99.90;;;;;;5069655;28;20115;-62
2023/03/25 00:10:53;;;;;;;13.48;2.03;;;9.60;99.90;;;;;;5069105;28;20089;-62
2023/03/25 00:13:20;;;;;;;9.38;1.95;;;9.70;99.90;;;;;;5051577;28;20048;-62
2023/03/25 00:15:47;;;;;;;12.15;2.22;;;9.60;99.90;;;;;;5049460;28;20044;-62
2023/03/25 00:18:16;;;;;;;22.45;2.70;;;9.70;99.90;;;;;;5049918;28;20116;-62
2023/03/25 00:20:44;;;;;;;8.32;1.05;;;9.70;99.90;;;;;;5051810;28;20052;-62
2023/03/25 00:23:11;;;;;;;17.50;2.22;;;9.70;99.90;;;;;;5068285;28;20048;-62
2023/03/25 00:25:37;;;;;;;13.70;2.28;;;9.70;99.90;;;;;;5070009;28;20041;-62
2023/03/25 00:28:03;;;;;;;17.45;2.13;;;9.70;99.90;;;;;;5049906;28;20055;-62
2023/03/25 00:30:29;;;;;;;12.05;1.77;;;9.70;99.90;;;;;;5051308;28;20047;-62
2023/03/25 00:32:56;;;;;;;11.75;1.70;;;9.60;99.90;;;;;;5068843;28;20168;-62
2023/03/25 00:35:22;;;;;;;13.07;1.80;;;9.60;99.90;;;;;;5068707;28;20119;-63
2023/03/25 00:37:58;;;;;;;7.07;1.70;;;9.60;99.90;;;;;;5068937;28;20056;-62
2023/03/25 00:40:33;;;;;;;6.75;1.45;;;9.60;99.90;;;;;;5068561;28;20037;-62
2023/03/25 00:43:00;;;;;;;11.50;2.15;;;9.60;99.90;;;;;;5069221;28;20056;-62
2023/03/25 00:45:33;;;;;;;12.68;1.90;;;9.60;99.90;;;;;;5068472;28;20055;-62
2023/03/25 00:47:59;;;;;;;17.33;2.42;;;9.60;99.90;;;;;;5068724;28;20617;-62
2023/03/25 00:50:25;;;;;;;9.70;2.00;;;9.60;99.90;;;;;;5067755;28;20079;-62
2023/03/25 00:52:52;;;;;;;8.07;1.33;;;9.60;99.90;;;;;;5050459;28;20132;-62
2023/03/25 00:55:18;;;;;;;12.60;2.50;;;9.60;99.90;;;;;;5068751;28;20052;-62
2023/03/25 00:57:44;;;;;;;13.00;2.08;;;9.50;99.90;;;;;;5068288;28;20044;-62
2023/03/25 01:00:14;;;;;;;12.48;1.67;;;9.50;99.90;;;;;;5068434;28;20048;-63
2023/03/25 01:02:40;;;;;;;13.43;2.25;;;9.40;99.90;;;;;;5050797;28;20044;-63
2023/03/25 01:05:09;;;;;;;14.32;1.75;;;9.30;99.90;;;;;;5052037;28;20041;-62
2023/03/25 01:07:36;;;;;;;17.77;2.30;;;9.30;99.90;;;;;;5039882;28;20047;-62
2023/03/25 01:10:04;;;;;;;24.83;2.83;;;9.30;99.90;;;;;;5067938;28;20049;-63
2023/03/25 01:12:30;;;;;;;8.52;1.88;;;9.30;99.90;;;;;;5068310;28;20036;-63
2023/03/25 01:14:56;;;;;;;16.65;2.53;;;9.30;99.90;;;;;;5032665;28;20482;-63
2023/03/25 01:17:22;;;;;;;18.67;2.85;;;9.30;99.90;;;;;;5068311;28;20132;-62
2023/03/25 01:19:48;;;;;;;14.93;2.58;;;9.30;99.90;;;;;;5048735;28;20049;-62
2023/03/25 01:22:14;;;;;;;24.13;2.50;;;9.20;99.90;;;;;;5049918;28;20052;-62
2023/03/25 01:24:40;;;;;;;8.90;1.70;;;9.20;99.90;;;;;;5067840;28;20070;-63
2023/03/25 01:27:05;;;;;;;17.42;2.53;;;9.20;99.90;;;;;;5067423;28;20048;-63
2023/03/25 01:29:31;;;;;;;15.55;2.30;;;9.20;99.90;;;;;;5061764;28;20032;-63
2023/03/25 01:31:57;;;;;;;17.38;2.83;;;9.20;99.90;;;;;;5048010;28;20049;-62
2023/03/25 01:34:23;;;;;;;15.40;2.85;;;9.10;99.90;;;;;;5067398;28;20048;-63
2023/03/25 01:36:49;;;;;;;16.10;2.90;;;9.10;99.90;;;;;;5067525;28;20059;-62
2023/03/25 01:39:17;;;;;;;20.35;2.42;;;9.10;99.90;;;;;;5068113;28;20495;-62
2023/03/25 01:41:46;;;;;;;13.60;2.08;;;9.10;99.90;;;;;;5066936;28;20045;-63
2023/03/25 01:44:20;;;;;;;7.40;1.10;;;9.10;99.90;;;;;;5067305;28;20052;-62
2023/03/25 01:46:48;;;;;;;17.83;2.50;;;9.10;99.90;;;;;;5067282;28;20422;-63
2023/03/25 01:49:28;;;;;;;13.55;2.65;;;9.10;99.90;;;;;;5032173;28;20080;-63
2023/03/25 01:52:02;;;;;;;16.08;2.60;;;9.00;99.90;;;;;;5066109;28;20555;-63
2023/03/25 01:54:28;;;;;;;19.25;2.38;;;9.00;99.90;;;;;;5047946;28;20099;-63
2023/03/25 01:56:54;;;;;;;10.32;1.58;;;9.00;99.90;;;;;;5062721;28;20094;-63
2023/03/25 01:59:23;;;;;;;11.57;2.25;;;8.90;99.90;;;;;;5049012;28;20101;-63
2023/03/25 02:01:50;;;;;;;16.42;2.90;;;8.90;99.90;;;;;;5048815;28;20052;-63
2023/03/25 02:04:37;;;;;;;16.63;2.40;;;8.90;99.90;;;;;;5066610;28;20109;-63
2023/03/25 02:07:07;;;;;;;12.95;2.20;;;8.80;99.90;;;;;;5066785;28;20037;-63
2023/03/25 02:09:33;;;;;;;16.15;2.70;;;8.80;99.90;;;;;;5049351;28;20083;-63
2023/03/25 02:11:59;;;;;;;13.02;2.25;;;8.80;99.90;;;;;;5067147;28;20584;-62
2023/03/25 02:14:29;;;;;;;21.35;3.92;;;8.70;99.90;;;;;;5066415;28;20174;-63
2023/03/25 02:17:01;;;;;;;11.13;1.92;;;8.80;99.90;;;;;;5048617;28;20762;-63
2023/03/25 02:20:04;;;;;;;19.98;2.65;;;8.70;99.90;;;;;;5066372;28;20079;-63
2023/03/25 02:22:55;;;;;;;18.60;2.13;;;8.70;99.90;;;;;;5048769;28;20536;-63
2023/03/25 02:25:20;;;;;;;;;;;8.70;99.90;;;;;;5066860;28;20449;-63
2023/03/25 02:28:04;;;;;;;7.60;1.55;;;8.80;99.90;;;;;;5066743;28;19925;-63
2023/03/25 02:30:42;;;;;;;21.48;2.78;;;8.70;99.90;;;;;;5048649;28;20044;-63
2023/03/25 02:33:17;;;;;;;11.10;2.00;;;8.70;99.90;;;;;;5061592;28;20496;-63
2023/03/25 02:35:57;;;;;;;23.92;2.78;;;8.70;99.90;;;;;;5058875;28;20089;-63
2023/03/25 02:38:25;;;;;;;11.95;2.13;;;8.70;99.90;;;;;;5061499;28;20068;-63
2023/03/25 02:41:00;;;;;;;23.58;3.53;;;8.60;99.90;;;;;;5066958;28;20037;-63
2023/03/25 02:43:38;;;;;;;7.07;1.35;;;8.60;99.90;;;;;;5066423;28;20074;-63
2023/03/25 02:46:11;;;;;;;15.55;2.67;;;8.60;99.90;;;;;;5066274;28;20045;-63
2023/03/25 02:48:55;;;;;;;6.10;1.27;;;8.60;99.90;;;;;;5066238;28;20735;-63
2023/03/25 02:51:29;;;;;;;23.38;3.08;;;8.60;99.90;;;;;;5062501;28;20056;-63
2023/03/25 02:54:00;;;;;;;17.15;2.38;;;8.50;99.90;;;;;;5066224;28;20124;-63
2023/03/25 02:56:28;;;;;;;11.40;2.35;;;8.60;99.90;;;;;;5066589;28;20084;-63
2023/03/25 02:58:56;;;;;;;21.70;3.22;;;8.50;99.90;;;;;;5066024;28;20503;-63
2023/03/25 03:01:25;;;;;;;22.70;3.22;;;8.50;99.90;;;;;;5031610;28;20044;-64
2023/03/25 03:03:52;;;;;;;15.90;3.17;;;8.50;99.90;;;;;;5066746;28;20036;-64
2023/03/25 03:06:21;;;;;;;25.70;3.08;;;8.50;99.90;;;;;;5066766;28;20041;-64
2023/03/25 03:08:50;;;;;;;16.35;2.40;;;8.60;99.90;;;;;;5066590;28;20052;-64
2023/03/25 03:11:24;;;;;;;23.52;3.58;;;8.50;99.90;;;;;;5042540;28;20045;-64
2023/03/25 03:14:12;;;;;;;19.42;2.70;;;8.50;99.90;;;;;;5066934;28;20522;-64
2023/03/25 03:16:57;;;;;;;21.20;3.25;;;8.50;99.90;;;;;;5054431;28;20036;-64
2023/03/25 03:19:26;;;;;;;21.48;3.00;;;8.50;99.90;;;;;;5065682;28;20494;-64
2023/03/25 03:22:26;;;;;;;20.23;2.65;;;8.40;99.90;;;;;;5066322;28;20044;-64
2023/03/25 03:25:00;;;;;;;29.02;3.08;;;8.50;99.90;;;;;;5048143;28;20102;-64
2023/03/25 03:27:41;;;;;;;19.15;3.53;;;8.50;99.90;;;;;;5048108;28;20323;-64
2023/03/25 03:30:37;;;;;;;23.77;3.65;;;8.50;99.90;;;;;;5048187;28;20398;-64
2023/03/25 03:33:12;;;;;;;7.70;1.42;;;8.50;99.90;;;;;;5047585;28;20558;-64
2023/03/25 03:35:50;;;;;;;16.58;2.08;;;8.50;99.90;;;;;;5066211;28;20047;-64
2023/03/25 03:38:20;;;;;;;24.42;4.22;;;8.50;99.90;;;;;;5065511;28;20154;-64
2023/03/25 03:40:51;;;;;;;14.23;1.88;;;8.60;99.90;;;;;;5065824;28;20418;-64
2023/03/25 03:43:39;;;;;;;16.67;2.22;;;8.50;99.90;;;;;;5066489;28;20064;-64
2023/03/25 03:46:15;;;;;;;28.77;4.35;;;8.50;99.90;;;;;;5047691;28;20064;-64
2023/03/25 03:48:52;;;;;;;28.77;4.03;;;8.50;99.90;;;;;;5066959;28;20052;-64
2023/03/25 03:51:28;;;;;;;21.98;4.10;;;8.50;99.90;;;;;;5069044;28;20083;-64
2023/03/25 03:53:57;;;;;;;23.67;3.10;;;8.50;99.90;;;;;;5069789;28;20079;-64
2023/03/25 03:56:46;;;;;;;28.40;3.33;;;8.50;99.90;;;;;;5069946;28;20056;-64
2023/03/25 03:59:26;;;;;;;25.65;2.80;;;8.50;99.90;;;;;;5040311;28;20090;-64
2023/03/25 04:01:58;;;;;;;27.98;3.83;;;8.50;99.90;;;;;;5051286;28;20054;-64
2023/03/25 04:04:25;;;;;;;27.55;4.07;;;8.50;99.90;;;;;;5034885;28;20083;-64
2023/03/25 04:07:06;;;;;;;24.65;3.72;;;8.50;99.90;;;;;;5069120;28;20033;-64
2023/03/25 04:09:54;;;;;;;14.90;2.60;;;8.50;99.90;;;;;;5069338;28;20052;-64
2023/03/25 04:12:26;;;;;;;27.02;3.75;;;8.50;99.90;;;;;;5067526;28;20127;-64
2023/03/25 04:14:54;;;;;;;21.52;3.80;;;8.50;99.90;;;;;;5051196;28;20048;-64
2023/03/25 04:17:21;;;;;;;12.90;1.73;;;8.40;99.90;;;;;;5069239;28;20495;-64
2023/03/25 04:19:47;;;;;;;14.25;2.22;;;8.40;99.90;;;;;;5068816;28;20468;-64
2023/03/25 04:22:16;;;;;;;12.63;1.75;;;8.40;99.90;;;;;;5060065;28;20040;-64
2023/03/25 04:24:42;;;;;;;21.17;3.50;;;8.40;99.90;;;;;;5067293;28;20045;-64
2023/03/25 04:27:12;;;;;;;23.80;3.67;;;8.40;99.90;;;;;;5069675;28;20049;-64
2023/03/25 04:29:39;;;;;;;21.35;3.28;;;8.30;99.90;;;;;;5068655;28;20050;-64
2023/03/25 04:32:07;;;;;;;16.40;2.33;;;8.30;99.90;;;;;;5068507;28;20043;-64
2023/03/25 04:34:32;;;;;;;15.98;2.85;;;8.30;99.90;;;;;;5050299;28;20137;-63
2023/03/25 04:36:58;;;;;;;13.10;2.67;;;8.40;99.90;;;;;;5069207;28;20508;-63
2023/03/25 04:39:24;;;;;;;21.25;4.20;;;8.30;99.90;;;;;;5069142;28;20059;-63
2023/03/25 04:41:55;;;;;;;26.17;2.55;;;8.30;99.90;;;;;;5049862;28;20056;-63
2023/03/25 04:44:24;;;;;;;22.55;3.10;;;8.30;99.90;;;;;;5069462;28;20058;-64
2023/03/25 04:46:51;;;;;;;10.70;1.95;;;8.30;99.90;;;;;;5049670;28;20113;-63
2023/03/25 04:49:20;;;;;;;22.50;3.15;;;8.30;99.90;;;;;;5069556;28;20080;-63
2023/03/25 04:51:50;;;;;;;17.77;2.72;;;8.30;99.90;;;;;;5068326;28;20126;-62
2023/03/25 04:54:20;;;;;;;23.10;3.63;;;8.30;99.90;;;;;;5068238;28;20483;-63
2023/03/25 04:56:48;;;;;;;18.83;2.85;;;8.30;99.90;;;;;;5050109;28;20147;-62
2023/03/25 04:59:14;;;;;;;21.35;3.05;;;8.30;99.90;;;;;;5069051;28;20075;-63
2023/03/25 05:01:41;;;;;;;20.60;3.15;;;8.30;99.90;;;;;;5049323;28;20040;-62
2023/03/25 05:04:11;;;;;;;16.05;2.92;;;8.30;99.90;;;;;;5068109;28;20044;-63
2023/03/25 05:06:55;;;;;;;18.42;3.03;;;8.20;99.90;;;;;;5068615;28;20076;-63
2023/03/25 05:09:21;;;;;;;10.25;2.17;;;8.30;99.90;;;;;;5057349;28;20041;-63
2023/03/25 05:11:48;;;;;;;20.65;3.58;;;8.20;99.90;;;;;;5050412;28;20466;-62
2023/03/25 05:14:16;;;;;;;18.90;2.22;;;8.30;99.90;;;;;;5067266;28;20498;-62
2023/03/25 05:16:42;;;;;;;16.10;2.55;;;8.20;99.90;;;;;;5058453;28;20033;-63
2023/03/25 05:19:08;;;;;;;15.98;2.78;;;8.20;99.90;;;;;;5067503;28;20052;-63
2023/03/25 05:21:41;;;;;;;14.90;2.00;;;8.20;99.90;;;;;;5067684;28;20040;-63
2023/03/25 05:24:10;;;;;;;25.42;2.92;;;8.20;99.90;;;;;;5068063;28;20505;-63
2023/03/25 05:26:38;;;;;;;25.95;3.95;;;8.20;99.90;;;;;;5049458;28;20525;-63
2023/03/25 05:29:14;;;;;;;16.60;2.65;;;8.20;99.90;;;;;;5068213;28;20052;-63
2023/03/25 05:31:43;;;;;;;19.15;3.67;;;8.20;99.90;;;;;;5048092;28;20044;-63
2023/03/25 05:34:09;;;;;;;18.92;3.15;;;8.20;99.90;;;;;;5067253;28;20048;-63
2023/03/25 05:36:35;;;;;;;20.05;3.15;;;8.20;99.90;;;;;;5068141;28;20051;-63
2023/03/25 05:39:03;;;;;;;17.63;3.03;;;8.20;99.90;;;;;;5067137;28;20075;-63
2023/03/25 05:41:31;;;;;;;23.70;3.97;;;8.20;99.90;;;;;;5067508;28;20124;-63
2023/03/25 05:44:00;;;;;;;22.05;3.40;;;8.20;99.90;;;;;;5032948;28;20054;-63
2023/03/25 05:46:28;;;;;;;23.20;3.03;;;8.20;99.90;;;;;;5048907;28;20516;-63
2023/03/25 05:48:56;;;;;;;19.17;2.60;;;8.20;99.90;;;;;;5036066;28;20051;-63
2023/03/25 05:51:23;;;;;;;32.75;3.53;;;8.20;99.90;;;;;;5067084;28;20500;-63
2023/03/25 05:53:48;;;;;;;21.95;3.30;;;8.30;99.90;;;;;;5049594;28;20044;-63
2023/03/25 05:56:16;;;;;;;23.65;2.83;;;8.30;99.90;;;;;;5067000;28;20097;-63
2023/03/25 05:58:43;;;;;;;20.30;3.05;;;8.30;99.90;;;;;;5066690;28;20041;-63
2023/03/25 06:01:12;;;;;;;18.88;3.47;;;8.20;99.90;;;;;;5067834;28;20070;-63
2023/03/25 06:03:39;;;;;;;18.95;2.92;;;8.30;99.90;;;;;;5067231;28;20485;-63
2023/03/25 06:06:12;;;;;;;30.80;4.10;;;8.30;99.90;;;;;;5066614;28;20120;-63
2023/03/25 06:08:46;;;;;;;9.02;1.90;;;8.30;99.90;;;;;;5032693;28;20141;-63
2023/03/25 06:11:12;;;;;;;22.42;3.53;;;8.20;99.90;;;;;;5067820;28;20040;-63
2023/03/25 06:13:39;;;;;;;15.75;3.08;;;8.30;99.90;;;;;;5067004;28;20060;-63
2023/03/25 06:16:07;;;;;;;20.90;2.85;;;8.30;99.90;;;;;;5048706;28;20048;-64
2023/03/25 06:18:34;;;;;;;18.23;2.50;;;8.30;99.90;;;;;;5067015;28;20395;-63
2023/03/25 06:21:00;;;;;;;18.05;2.58;;;8.30;99.90;;;;;;5048436;28;20040;-63
2023/03/25 06:23:26;;;;;;;25.02;3.42;;;8.30;99.90;;;;;;5067263;28;20124;-64
2023/03/25 06:25:53;;;;;;;23.05;4.03;;;8.30;99.90;;;;;;5066234;28;20040;-63
2023/03/25 06:28:19;;;;;;;24.13;3.95;;;8.30;99.90;;;;;;5067344;28;20044;-63
2023/03/25 06:30:47;;;;;;;25.80;3.65;;;8.40;99.90;;;;;;5066134;28;20483;-63
2023/03/25 06:33:15;;;;;;;30.38;4.05;;;8.30;99.90;;;;;;5048263;28;20040;-63
2023/03/25 06:35:52;;;;;;;29.65;4.38;;;8.40;99.90;;;;;;5066656;28;20044;-63
2023/03/25 06:38:18;;;;;;;36.53;4.82;;;8.40;99.90;;;;;;5066190;28;20032;-63
2023/03/25 06:40:46;;;;;;;37.47;4.57;;;8.40;99.90;;;;;;5049030;28;20040;-63
2023/03/25 06:43:12;;;;;;;25.80;3.65;;;8.40;99.90;;;;;;5066600;28;20119;-63
2023/03/25 06:45:38;;;;;;;33.55;3.78;;;8.50;99.90;;;;;;5032443;28;20128;-63
2023/03/25 06:48:04;;;;;;;36.13;4.32;;;8.50;99.90;;;;;;5046962;28;20056;-63
2023/03/25 06:50:31;;;;;;;25.20;3.88;;;8.60;99.90;;;;;;5066948;28;20441;-63
2023/03/25 06:52:57;;;;;;;35.88;4.20;;;8.60;99.90;;;;;;5066413;28;20041;-63
2023/03/25 06:55:22;;;;;;;35.25;4.30;;;8.70;99.90;;;;;;5048604;28;20052;-63
2023/03/25 06:57:48;;;;;;;33.28;5.20;;;8.70;99.90;;;;;;5066862;28;20044;-63
2023/03/25 07:00:19;;;;;;;32.88;3.92;;;8.70;99.90;;;;;;5047834;28;20445;-63
2023/03/25 07:02:45;;;;;;;29.52;5.65;;;8.70;99.90;;;;;;5032968;28;20040;-63
2023/03/25 07:05:11;;;;;;;41.00;4.85;;;8.80;99.90;;;;;;5065968;28;20107;-63
2023/03/25 07:07:36;;;;;;;24.90;4.03;;;8.80;99.90;;;;;;5058575;28;20068;-63
2023/03/25 07:10:03;;;;;;;52.42;5.28;;;8.80;99.90;;;;;;5060274;28;20398;-63
2023/03/25 07:12:29;;;;;;;22.17;3.22;;;8.80;99.90;;;;;;5066336;28;20861;-63
2023/03/25 07:14:56;;;;;;;37.85;4.93;;;8.70;99.90;;;;;;5048378;28;20040;-63
2023/03/25 07:17:22;;;;;;;31.10;4.22;;;8.70;99.90;;;;;;5065911;28;20033;-63
2023/03/25 07:19:49;;;;;;;35.28;4.63;;;8.70;99.90;;;;;;5066816;28;20052;-63
2023/03/25 07:22:15;;;;;;;34.50;4.53;;;8.70;99.90;;;;;;5065837;28;20067;-64
2023/03/25 07:24:41;;;;;;;22.33;3.13;;;8.70;99.90;;;;;;5051229;28;20055;-63
2023/03/25 07:27:13;;;;;;;38.92;4.25;;;8.70;99.90;;;;;;5069465;28;20036;-63
2023/03/25 07:29:39;;;;;;;25.10;3.15;;;8.80;99.90;;;;;;5068659;28;20495;-63
2023/03/25 07:32:05;;;;;;;40.25;3.83;;;8.90;99.90;;;;;;5061130;28;20040;-64
2023/03/25 07:34:31;;;;;;;17.98;2.97;;;8.90;99.90;;;;;;5068986;28;20094;-64
2023/03/25 07:36:57;;;;;;;30.00;4.20;;;9.00;99.90;;;;;;5051308;28;20518;-63
2023/03/25 07:39:24;;;;;;;25.50;3.80;;;9.10;99.90;;;;;;5051300;28;20052;-64
2023/03/25 07:41:53;;;;;;;19.30;2.72;;;9.10;99.90;;;;;;5066334;28;20182;-64
2023/03/25 07:44:20;;;;;;;14.98;2.22;;;9.20;99.90;;;;;;5050769;28;20037;-63
2023/03/25 07:46:47;;;;;;;28.20;4.00;;;9.30;99.90;;;;;;5068415;28;20128;-64
2023/03/25 07:49:13;;;;;;;26.65;4.15;;;9.40;99.90;;;;;;5069258;28;20044;-64
2023/03/25 07:51:39;;;;;;;28.15;4.57;;;9.50;99.90;;;;;;5069612;28;20052;-64
2023/03/25 07:54:05;;;;;;;20.48;3.03;;;9.60;99.90;;;;;;5069403;28;20036;-63
2023/03/25 07:56:31;;;;;;;39.05;4.75;;;9.60;99.90;;;;;;5057960;28;20479;-63
2023/03/25 07:58:57;;;;;;;19.42;3.65;;;9.50;99.90;;;;;;5039129;28;20057;-64
2023/03/25 08:01:22;;;;;;;33.20;4.50;;;9.40;99.90;;;;;;5041855;28;20039;-64
2023/03/25 08:03:48;;;;;;;22.75;3.17;;;9.30;99.90;;;;;;5052379;28;20052;-63
2023/03/25 08:06:14;;;;;;;18.13;3.25;;;9.20;99.90;;;;;;5042302;28;20044;-63
2023/03/25 08:08:40;;;;;;;9.73;1.17;;;9.10;99.90;;;;;;5046192;28;20427;-63
2023/03/25 08:11:06;;;;;;;20.30;3.65;;;9.00;99.90;;;;;;5068661;28;20044;-63
2023/03/25 08:13:32;;;;;;;14.32;2.28;;;9.00;99.90;;;;;;5043753;28;20568;-63
2023/03/25 08:15:59;;;;;;;25.77;3.42;;;8.90;99.90;;;;;;5066536;28;20071;-63
2023/03/25 08:18:25;;;;;;;18.08;2.65;;;8.90;99.90;;;;;;5068558;28;20040;-63
2023/03/25 08:20:52;;;;;;;21.80;2.78;;;8.90;99.90;;;;;;5069687;28;20053;-63
2023/03/25 08:23:19;;;;;;;17.00;2.10;;;8.80;99.90;;;;;;5033165;28;20047;-63
2023/03/25 08:25:49;;;;;;;11.20;1.52;;;8.80;99.90;;;;;;5069397;28;20098;-63
2023/03/25 08:28:16;;;;;;;12.35;1.48;;;8.60;99.90;;;;;;5041244;28;20040;-63
2023/03/25 08:30:43;;;;;;;10.43;1.55;;;8.50;99.90;;;;;;5068872;28;20040;-63
2023/03/25 08:33:09;;;;;;;15.70;2.08;;;8.50;99.90;;;;;;5068180;28;20032;-63
2023/03/25 08:35:36;;;;;;;13.38;2.00;;;8.60;99.90;;;;;;5048765;28;20068;-63
2023/03/25 08:38:06;;;;;;;12.88;2.50;;;8.80;99.90;;;;;;5049044;28;20380;-63
2023/03/25 08:40:35;;;;;;;15.43;1.95;;;8.90;99.90;;;;;;5048676;28;20049;-64
2023/03/25 08:43:05;;;;;;;7.53;1.65;;;9.10;99.90;;;;;;5062955;28;20044;-63
2023/03/25 08:45:33;;;;;;;27.38;3.13;;;9.30;99.90;;;;;;5050326;28;20500;-64
2023/03/25 08:48:00;;;;;;;22.08;2.83;;;9.30;99.90;;;;;;5050726;28;20502;-64
2023/03/25 08:50:26;;;;;;;11.52;2.38;;;9.30;99.90;;;;;;5050745;28;20076;-63
2023/03/25 08:52:53;;;;;;;7.00;1.27;;;9.30;99.90;;;;;;5068462;28;20475;-64
2023/03/25 08:55:19;;;;;;;27.05;3.95;;;9.30;99.90;;;;;;5050712;28;20106;-63
2023/03/25 08:57:45;;;;;;;17.25;2.42;;;9.30;99.90;;;;;;5068245;28;20052;-64
2023/03/25 09:00:11;;;;;;;17.45;2.15;;;9.40;99.90;;;;;;5068431;28;20043;-63
2023/03/25 09:02:37;;;;;;;16.00;2.30;;;9.50;99.90;;;;;;5068052;28;20056;-63
2023/03/25 09:05:04;;;;;;;16.15;2.42;;;9.60;99.90;;;;;;5068159;28;20371;-63
2023/03/25 09:07:29;;;;;;;15.80;2.53;;;9.70;99.90;;;;;;5068442;28;20121;-63
2023/03/25 09:09:55;;;;;;;13.38;1.73;;;9.70;99.90;;;;;;5029516;28;20045;-64
2023/03/25 09:12:21;;;;;;;11.65;1.98;;;9.70;99.90;;;;;;5068319;28;20044;-63
2023/03/25 09:14:46;;;;;;;4.75;1.35;;;9.80;99.90;;;;;;5067237;28;20036;-64
2023/03/25 09:17:12;;;;;;;13.43;2.33;;;9.70;99.90;;;;;;5050246;28;20571;-63
2023/03/25 09:19:38;;;;;;;14.85;2.45;;;9.60;99.90;;;;;;5049938;28;20834;-63
2023/03/25 09:22:05;;;;;;;9.85;2.05;;;9.60;99.90;;;;;;5068349;28;20081;-63
2023/03/25 09:24:32;;;;;;;7.82;0.93;;;9.40;99.90;;;;;;5068000;28;20039;-63
2023/03/25 09:27:02;;;;;;;27.60;5.20;;;9.20;99.90;;;;;;5067579;28;20044;-63
2023/03/25 09:29:28;;;;;;;5.40;1.17;;;9.00;99.90;;;;;;5067981;28;20270;-63
2023/03/25 09:31:57;;;;;;;9.48;2.30;;;9.00;99.90;;;;;;5067318;28;20055;-63
2023/03/25 09:34:23;;;;;;;11.18;2.85;;;9.00;99.90;;;;;;5049471;28;20049;-63
2023/03/25 09:36:49;;;;;;;17.45;2.65;;;9.10;99.90;;;;;;5044919;28;20080;-63
2023/03/25 09:39:14;;;;;;;9.20;1.30;;;9.20;99.90;;;;;;5031483;28;20040;-64
2023/03/25 09:41:51;;;;;;;21.10;3.17;;;9.40;99.90;;;;;;5066380;28;20044;-64
2023/03/25 09:44:28;;;;;;;17.83;3.00;;;9.40;99.90;;;;;;5066262;28;20048;-63
2023/03/25 09:46:57;;;;;;;17.85;3.22;;;9.80;99.90;;;;;;5066743;28;20096;-64
2023/03/25 09:49:31;;;;;;;19.35;2.58;;;9.90;99.90;;;;;;5048672;28;20048;-64
2023/03/25 09:51:59;;;;;;;25.42;3.25;;;10.00;99.90;;;;;;5067407;28;20028;-64
2023/03/25 09:54:30;;;;;;;22.88;3.30;;;10.00;99.90;;;;;;5066814;28;20123;-64
2023/03/25 09:57:05;;;;;;;18.23;2.50;;;10.00;99.90;;;;;;5066898;28;20165;-64
2023/03/25 09:59:47;;;;;;;14.23;2.58;;;10.00;99.90;;;;;;5067460;28;20063;-64
2023/03/25 10:02:28;;;;;;;12.68;1.98;;;10.00;99.90;;;;;;5026063;28;20041;-63
2023/03/25 10:05:17;;;;;;;31.98;3.47;;;10.00;99.90;;;;;;5046161;28;20045;-64
2023/03/25 10:07:53;;;;;;;19.50;2.50;;;10.20;99.90;;;;;;5067307;28;20404;-64
2023/03/25 10:10:31;;;;;;;23.63;3.00;;;10.30;99.90;;;;;;5066425;28;20105;-64
2023/03/25 10:13:06;;;;;;;15.75;1.75;;;10.30;99.90;;;;;;5067678;28;20055;-63
2023/03/25 10:15:57;;;;;;;10.65;2.53;;;10.20;99.90;;;;;;5067078;28;20044;-63
2023/03/25 10:18:45;;;;;;;5.97;1.30;;;10.10;99.90;;;;;;5039801;28;20044;-64
2023/03/25 10:21:55;;;;;;;12.40;1.42;;;10.00;99.90;;;;;;5067752;28;20045;-64
2023/03/25 10:24:30;;;;;;;6.20;1.17;;;10.00;99.90;;;;;;5066500;28;20052;-63
2023/03/25 10:27:22;;;;;;;16.52;1.75;;;10.20;99.90;;;;;;5067026;28;20123;-64
2023/03/25 10:30:22;;;;;;;7.50;1.40;;;10.40;99.90;;;;;;5066499;28;20553;-64
2023/03/25 10:32:56;;;;;;;3.65;0.90;;;10.60;99.90;;;;;;5058807;28;20056;-64
2023/03/25 10:35:38;;;;;;;9.88;2.30;;;10.60;99.90;;;;;;5048593;28;20048;-64
2023/03/25 10:38:19;;;;;;;3.25;1.13;;;10.40;99.90;;;;;;5032584;28;20045;-64
2023/03/25 10:40:51;;;;;;;7.07;1.38;;;10.30;99.90;;;;;;5065784;28;20129;-64
2023/03/25 10:43:23;;;;;;;6.25;0.90;;;10.30;99.90;;;;;;5065039;28;20116;-63
2023/03/25 10:45:51;;;;;;;6.05;1.00;;;10.40;99.90;;;;;;5066703;28;20135;-64
2023/03/25 10:48:28;;;;;;;2.88;0.90;;;10.60;99.90;;;;;;5066888;28;20448;-63
2023/03/25 10:51:05;;;;;;;14.75;1.45;;;10.60;99.90;;;;;;5066467;28;20048;-64
2023/03/25 10:53:31;;;;;;;4.78;0.73;;;10.40;99.90;;;;;;5065660;28;20040;-64
2023/03/25 10:56:17;;;;;;;11.10;1.90;;;10.30;99.90;;;;;;5049262;28;20046;-64
2023/03/25 10:58:46;;;;;;;2.97;0.70;;;10.10;99.90;;;;;;5065475;28;20418;-64
2023/03/25 11:01:17;;;;;;;8.70;1.83;;;10.00;99.90;;;;;;5066122;28;20122;-64
2023/03/25 11:03:48;;;;;;;8.35;1.17;;;9.90;99.90;;;;;;5065992;28;20115;-64
2023/03/25 11:06:40;;;;;;;;;;;10.00;99.90;;;;;;5048969;28;20102;-64
2023/03/25 11:09:08;;;;;;;13.18;2.28;;;10.10;99.90;;;;;;5061898;28;20608;-64
2023/03/25 11:11:35;;;;;;;1.25;0.40;;;10.40;99.90;;;;;;5066125;28;20768;-64
2023/03/25 11:14:02;;;;;;;5.38;1.30;;;10.70;99.90;;;;;;5065681;28;20130;-64
2023/03/25 11:16:55;;;;;;;5.68;1.38;;;10.90;99.90;;;;;;5065925;28;20803;-64
2023/03/25 11:19:35;;;;;;;9.65;1.67;;;10.80;99.90;;;;;;5062321;28;20147;-64
2023/03/25 11:22:33;;;;;;;7.28;1.20;;;10.60;99.90;;;;;;5066895;28;20052;-64
2023/03/25 11:25:05;;;;;;;10.55;2.22;;;10.30;99.90;;;;;;5050309;28;20075;-63
2023/03/25 11:27:41;;;;;;;5.65;1.20;;;10.20;99.90;;;;;;5047830;28;20048;-63
2023/03/25 11:30:16;;;;;;;7.15;1.40;;;10.00;99.90;;;;;;5067178;28;20041;-64
2023/03/25 11:32:42;;;;;;;23.77;2.15;;;10.10;99.90;;;;;;5065027;28;20084;-63
2023/03/25 11:35:20;;;;;;;9.52;1.50;;;10.20;99.90;;;;;;5047945;28;20141;-64
2023/03/25 11:37:52;;;;;;;17.40;1.80;;;10.40;99.90;;;;;;5065238;28;20143;-63
2023/03/25 11:40:19;;;;;;;19.20;2.50;;;10.60;99.90;;;;;;5066340;28;20047;-64
2023/03/25 11:42:56;;;;;;;12.00;2.25;;;10.80;99.90;;;;;;5047978;28;20506;-63
2023/03/25 11:45:31;;;;;;;22.20;2.45;;;10.80;99.90;;;;;;5065755;28;20048;-64
2023/03/25 11:47:59;;;;;;;17.95;2.47;;;10.90;99.90;;;;;;5065834;28;20499;-64
2023/03/25 11:50:27;;;;;;;9.05;1.45;;;10.90;99.90;;;;;;5048441;28;20044;-64
2023/03/25 11:52:57;;;;;;;7.80;1.67;;;10.90;99.90;;;;;;5066263;28;20075;-64
2023/03/25 11:55:27;;;;;;;12.20;1.70;;;11.00;99.90;;;;;;5065933;28;20036;-64
2023/03/25 11:57:56;;;;;;;15.32;2.13;;;10.90;99.90;;;;;;5036109;28;20040;-64
2023/03/25 12:00:49;;;;;;;15.45;2.88;;;11.00;99.90;;;;;;5056264;28;20052;-64
2023/03/25 12:03:26;;;;;;;8.48;0.65;;;11.00;99.90;;;;;;5051608;28;20076;-64
2023/03/25 12:06:03;;;;;;;14.55;3.67;;;10.70;99.90;;;;;;5065398;28;20556;-64
2023/03/25 12:08:42;;;;;;;15.40;2.85;;;10.40;99.90;;;;;;5065631;28;20490;-64
2023/03/25 12:11:15;;;;;;;10.63;1.92;;;10.40;99.90;;;;;;5068510;28;20040;-64
2023/03/25 12:13:49;;;;;;;2.80;1.08;;;10.50;99.90;;;;;;5051375;28;20052;-64
2023/03/25 12:16:38;;;;;;;10.40;1.25;;;10.70;99.90;;;;;;5068798;28;20090;-64
2023/03/25 12:19:27;;;;;;;7.72;1.50;;;11.00;99.90;;;;;;5066415;28;20552;-64
2023/03/25 12:21:58;;;;;;;9.73;1.95;;;11.30;98.50;;;;;;5066515;28;20052;-64
2023/03/25 12:24:30;;;;;;;5.03;0.68;;;11.60;96.30;;;;;;5063692;28;20048;-64
2023/03/25 12:26:56;;;;;;;5.15;0.65;;;11.80;98.50;;;;;;5068463;28;20056;-64
2023/03/25 12:29:21;;;;;;;9.95;1.67;;;11.70;94.30;;;;;;5066311;28;20048;-64
2023/03/25 12:31:56;;;;;;;4.07;1.15;;;11.70;92.00;;;;;;5066970;28;20040;-64
2023/03/25 12:34:22;;;;;;;8.27;1.20;;;11.60;90.30;;;;;;5066400;28;20068;-63
2023/03/25 12:36:48;;;;;;;4.72;1.27;;;11.50;92.20;;;;;;5067450;28;20041;-64
2023/03/25 12:39:16;;;;;;;4.75;0.93;;;11.40;93.10;;;;;;5065053;28;20090;-64
2023/03/25 12:42:04;;;;;;;1.85;0.90;;;11.50;92.60;;;;;;5064055;28;20068;-64
2023/03/25 12:45:05;;;;;;;5.85;1.65;;;11.70;91.30;;;;;;5058290;28;20568;-64
2023/03/25 12:47:52;;;;;;;5.00;1.42;;;11.70;81.80;;;;;;4952229;28;20081;-64
2023/03/25 12:50:41;;;;;;;2.83;1.05;;;11.60;88.70;;;;;;5050818;28;20056;-64
2023/03/25 12:53:07;;;;;;;5.00;1.10;;;11.40;92.30;;;;;;5062851;28;20453;-64
2023/03/25 12:55:51;;;;;;;9.05;1.13;;;11.40;95.60;;;;;;5044846;28;20048;-64
2023/03/25 12:58:58;;;;;;;7.35;2.08;;;11.40;93.30;;;;;;5068221;28;20114;-63
2023/03/25 13:01:35;;;;;;;23.77;2.33;;;11.40;91.90;;;;;;5061468;28;20110;-63
2023/03/25 13:04:24;;;;;;;5.57;1.38;;;11.40;89.30;;;;;;5067580;28;20288;-64
2023/03/25 13:07:05;;;;;;;11.00;1.40;;;11.40;88.30;;;;;;5046250;28;20526;-64
2023/03/25 13:09:36;;;;;;;;;;;11.30;87.00;;;;;;5036859;28;20048;-63